Bethel, Connecticut
Current Conditions -  °F | °C
As of 10:53 AM on Friday 21 Nov 2014 (Local Time) from KDXR Reporting Station
Clear Clear  
Wind Chill: 21°   Ceiling: Unl
Heat Index: 31°   Visibility: 10mi
Dew Point:   Wind: 13mph
Humidity: 38%   Direction: 300°WNW
Pressure: 30.24"   Gusts: 18mph
Location:  41.37°N, 73.41°W
Report Text: KDXR 211553Z 30011G16KT 10SM CLR M01/M13 A3024 RMK AO2 SLP243 T10061133
Loading
Personal Weather Stations






























Interactive Weather Map New forecast layout! Learn more

10-Day Weather Forecast

Advertisements
Track Severe Weather on mobile